createdAt,value
2018-12-16T00:00:43.869Z,1018.01
2018-12-16T00:01:43.848Z,1017.98
2018-12-16T00:02:45.502Z,1017.98
2018-12-16T00:03:43.881Z,1017.97
2018-12-16T00:04:49.895Z,1018.01
2018-12-16T00:05:44.809Z,1017.96
2018-12-16T00:06:43.795Z,1018.01
2018-12-16T00:07:43.823Z,1017.97
2018-12-16T00:08:43.779Z,1017.94
2018-12-16T00:09:43.763Z,1017.93
2018-12-16T00:10:44.449Z,1017.93
2018-12-16T00:11:43.748Z,1017.89
2018-12-16T00:12:43.748Z,1017.94
2018-12-16T00:13:43.741Z,1017.91
2018-12-16T00:14:43.743Z,1017.88
2018-12-16T00:15:43.711Z,1017.88
2018-12-16T00:16:44.133Z,1017.82
2018-12-16T00:17:43.681Z,1017.84
2018-12-16T00:18:43.935Z,1017.82
2018-12-16T00:19:43.670Z,1017.79
2018-12-16T00:20:43.706Z,1017.80
2018-12-16T00:21:43.636Z,1017.76
2018-12-16T00:22:43.630Z,1017.75
2018-12-16T00:23:45.049Z,1017.81
2018-12-16T00:24:44.386Z,1017.81
2018-12-16T00:25:43.731Z,1017.83
2018-12-16T00:26:43.582Z,1017.87
2018-12-16T00:27:43.570Z,1017.88
2018-12-16T00:28:43.562Z,1017.87
2018-12-16T00:29:43.546Z,1017.84
2018-12-16T00:30:43.727Z,1017.89
2018-12-16T00:31:43.725Z,1017.85
2018-12-16T00:32:43.518Z,1017.84
2018-12-16T00:33:43.509Z,1017.80
2018-12-16T00:34:43.500Z,1017.80
2018-12-16T00:35:43.481Z,1017.79
2018-12-16T00:36:43.492Z,1017.82
2018-12-16T00:37:44.961Z,1017.76
2018-12-16T00:38:43.449Z,1017.71
2018-12-16T00:39:43.474Z,1017.68
2018-12-16T00:40:43.434Z,1017.66
2018-12-16T00:41:43.419Z,1017.65
2018-12-16T00:42:43.413Z,1017.68
2018-12-16T00:43:43.785Z,1017.67
2018-12-16T00:44:44.684Z,1017.62
2018-12-16T00:45:43.374Z,1017.60
2018-12-16T00:46:43.375Z,1017.61
2018-12-16T00:47:43.358Z,1017.59
2018-12-16T00:48:43.353Z,1017.63
2018-12-16T00:49:43.502Z,1017.56
2018-12-16T00:50:43.565Z,1017.60
2018-12-16T00:51:43.320Z,1017.53
2018-12-16T00:52:43.440Z,1017.53
2018-12-16T00:53:43.303Z,1017.49
2018-12-16T00:54:43.398Z,1017.50
2018-12-16T00:55:43.491Z,1017.47
2018-12-16T00:56:43.266Z,1017.47
2018-12-16T00:57:43.248Z,1017.50
2018-12-16T00:58:43.274Z,1017.48
2018-12-16T00:59:43.232Z,1017.49
2018-12-16T01:00:43.223Z,1017.44
2018-12-16T01:01:43.541Z,1017.52
2018-12-16T01:02:43.197Z,1017.46
2018-12-16T01:03:43.188Z,1017.46
2018-12-16T01:04:43.177Z,1017.39
2018-12-16T01:05:44.242Z,1017.36
2018-12-16T01:06:43.334Z,1017.35
2018-12-16T01:07:43.511Z,1017.35
2018-12-16T01:08:43.423Z,1017.29
2018-12-16T01:09:43.270Z,1017.32
2018-12-16T01:10:43.120Z,1017.31
2018-12-16T01:11:43.369Z,1017.36
2018-12-16T01:12:43.417Z,1017.34
2018-12-16T01:13:43.110Z,1017.28
2018-12-16T01:14:43.477Z,1017.28
2018-12-16T01:15:43.571Z,1017.30
2018-12-16T01:16:43.072Z,1017.32
2018-12-16T01:17:43.041Z,1017.31
2018-12-16T01:18:43.045Z,1017.25
2018-12-16T01:19:43.017Z,1017.27
2018-12-16T01:20:43.242Z,1017.25
2018-12-16T01:21:42.994Z,1017.21
2018-12-16T01:22:43.531Z,1017.27
2018-12-16T01:23:42.975Z,1017.21
2018-12-16T01:24:43.019Z,1017.21
2018-12-16T01:25:42.952Z,1017.22
2018-12-16T01:26:45.485Z,1017.17
2018-12-16T01:27:43.138Z,1017.10
2018-12-16T01:28:43.072Z,1017.14
2018-12-16T01:29:42.929Z,1017.08
2018-12-16T01:30:42.922Z,1017.09
2018-12-16T01:31:44.763Z,1017.04
2018-12-16T01:32:43.181Z,1017.08
2018-12-16T01:33:42.865Z,1017.04
2018-12-16T01:34:42.857Z,1017.00
2018-12-16T01:35:42.857Z,1017.02
2018-12-16T01:36:42.867Z,1016.92
2018-12-16T01:37:42.833Z,1016.94
2018-12-16T01:38:42.959Z,1017.00
2018-12-16T01:39:42.835Z,1016.97
2018-12-16T01:40:42.793Z,1016.96
2018-12-16T01:41:42.791Z,1017.03
2018-12-16T01:42:42.966Z,1016.94
2018-12-16T01:43:42.814Z,1016.96
2018-12-16T01:44:42.742Z,1016.90
2018-12-16T01:45:42.895Z,1016.93
2018-12-16T01:46:43.410Z,1016.91
2018-12-16T01:47:43.768Z,1016.88
2018-12-16T01:48:43.040Z,1016.81
2018-12-16T01:49:42.767Z,1016.80
2018-12-16T01:50:42.679Z,1016.83
2018-12-16T01:51:43.001Z,1016.76
2018-12-16T01:52:42.676Z,1016.74
2018-12-16T01:53:42.727Z,1016.79
2018-12-16T01:54:42.974Z,1016.76
2018-12-16T01:55:42.632Z,1016.74
2018-12-16T01:56:42.619Z,1016.73
2018-12-16T01:57:42.614Z,1016.63
2018-12-16T01:58:42.897Z,1016.66
2018-12-16T01:59:42.600Z,1016.65
2018-12-16T02:00:43.098Z,1016.62
2018-12-16T02:01:42.587Z,1016.62
2018-12-16T02:02:42.583Z,1016.67
2018-12-16T02:03:42.539Z,1016.59
2018-12-16T02:04:43.241Z,1016.55
2018-12-16T02:05:43.145Z,1016.59
2018-12-16T02:06:42.977Z,1016.60
2018-12-16T02:07:42.897Z,1016.51
2018-12-16T02:08:43.505Z,1016.45
2018-12-16T02:09:42.476Z,1016.41
2018-12-16T02:10:42.647Z,1016.39
2018-12-16T02:11:42.453Z,1016.38
2018-12-16T02:12:42.467Z,1016.42
2018-12-16T02:13:42.430Z,1016.45
2018-12-16T02:14:42.451Z,1016.39
2018-12-16T02:15:42.482Z,1016.39
2018-12-16T02:16:42.666Z,1016.39
2018-12-16T02:17:42.528Z,1016.35
2018-12-16T02:18:42.378Z,1016.37
2018-12-16T02:19:42.752Z,1016.38
2018-12-16T02:20:42.357Z,1016.34
2018-12-16T02:21:42.348Z,1016.34
2018-12-16T02:22:42.347Z,1016.35
2018-12-16T02:23:43.252Z,1016.26
2018-12-16T02:24:43.206Z,1016.29
2018-12-16T02:25:42.603Z,1016.29
2018-12-16T02:26:42.298Z,1016.28
2018-12-16T02:27:42.284Z,1016.30
2018-12-16T02:28:49.270Z,1016.24
2018-12-16T02:29:42.649Z,1016.26
2018-12-16T02:30:42.697Z,1016.28
2018-12-16T02:31:42.266Z,1016.24
2018-12-16T02:32:42.475Z,1016.29
2018-12-16T02:33:42.273Z,1016.24
2018-12-16T02:34:42.341Z,1016.24
2018-12-16T02:35:42.311Z,1016.18
2018-12-16T02:36:42.750Z,1016.21
2018-12-16T02:37:42.794Z,1016.21
2018-12-16T02:38:42.183Z,1016.16
2018-12-16T02:39:42.445Z,1016.12
2018-12-16T02:40:42.155Z,1016.17
2018-12-16T02:41:42.214Z,1016.12
2018-12-16T02:42:42.741Z,1016.13
2018-12-16T02:43:42.448Z,1016.09
2018-12-16T02:44:42.311Z,1016.16
2018-12-16T02:45:42.341Z,1016.19
2018-12-16T02:46:42.162Z,1016.16
2018-12-16T02:47:42.261Z,1016.21
2018-12-16T02:48:47.426Z,1016.20
2018-12-16T02:49:42.212Z,1016.13
2018-12-16T02:50:42.243Z,1016.07
2018-12-16T02:51:42.237Z,1016.10
2018-12-16T02:52:42.219Z,1016.10
2018-12-16T02:53:42.260Z,1016.11
2018-12-16T02:54:42.502Z,1016.15
2018-12-16T02:55:42.184Z,1016.18
2018-12-16T02:56:42.190Z,1016.15
2018-12-16T02:57:41.970Z,1016.17
2018-12-16T02:58:42.147Z,1016.22
2018-12-16T02:59:41.946Z,1016.17
2018-12-16T03:00:42.619Z,1016.14
2018-12-16T03:01:41.914Z,1016.13
2018-12-16T03:02:42.285Z,1016.06
2018-12-16T03:03:41.917Z,1016.07
2018-12-16T03:04:42.158Z,1016.05
2018-12-16T03:05:42.057Z,1016.07
2018-12-16T03:06:42.562Z,1016.02
2018-12-16T03:07:41.944Z,1016.01
2018-12-16T03:08:42.220Z,1015.99
2018-12-16T03:09:41.922Z,1015.95
2018-12-16T03:10:41.888Z,1015.91
2018-12-16T03:11:42.783Z,1015.96
2018-12-16T03:12:42.798Z,1015.94
2018-12-16T03:13:41.934Z,1015.95
2018-12-16T03:14:41.884Z,1015.91
2018-12-16T03:15:42.021Z,1015.97
2018-12-16T03:16:41.843Z,1015.91
2018-12-16T03:17:42.054Z,1015.87
2018-12-16T03:18:42.684Z,1015.82
2018-12-16T03:19:43.806Z,1015.82
2018-12-16T03:20:42.949Z,1015.82
2018-12-16T03:21:42.298Z,1015.81
2018-12-16T03:22:41.838Z,1015.76
2018-12-16T03:23:42.028Z,1015.80
2018-12-16T03:24:42.808Z,1015.77
2018-12-16T03:25:41.955Z,1015.76
2018-12-16T03:26:41.816Z,1015.76
2018-12-16T03:27:41.979Z,1015.75
2018-12-16T03:28:41.917Z,1015.75
2018-12-16T03:29:41.953Z,1015.73
2018-12-16T03:30:42.579Z,1015.73
2018-12-16T03:31:42.023Z,1015.73
2018-12-16T03:32:42.053Z,1015.69
2018-12-16T03:33:41.835Z,1015.69
2018-12-16T03:34:42.078Z,1015.66
2018-12-16T03:35:42.514Z,1015.70
2018-12-16T03:36:42.713Z,1015.64
2018-12-16T03:37:41.826Z,1015.67
2018-12-16T03:38:42.761Z,1015.66
2018-12-16T03:39:41.830Z,1015.61
2018-12-16T03:40:44.424Z,1015.64
2018-12-16T03:41:41.848Z,1015.65
2018-12-16T03:42:42.675Z,1015.59
2018-12-16T03:43:41.864Z,1015.62
2018-12-16T03:44:42.186Z,1015.56
2018-12-16T03:45:41.859Z,1015.46
2018-12-16T03:46:42.116Z,1015.51
2018-12-16T03:47:41.903Z,1015.44
2018-12-16T03:48:42.786Z,1015.56
2018-12-16T03:49:41.960Z,1015.54
2018-12-16T03:50:42.092Z,1015.56
2018-12-16T03:51:42.044Z,1015.58
2018-12-16T03:52:42.266Z,1015.49
2018-12-16T03:53:42.015Z,1015.54
2018-12-16T03:54:42.867Z,1015.53
2018-12-16T03:55:42.091Z,1015.53
2018-12-16T03:56:41.866Z,1015.54
2018-12-16T03:57:42.037Z,1015.54
2018-12-16T03:58:41.837Z,1015.53
2018-12-16T03:59:42.659Z,1015.55
2018-12-16T04:00:42.735Z,1015.48
2018-12-16T04:01:44.225Z,1015.49
2018-12-16T04:02:41.856Z,1015.46
2018-12-16T04:03:42.114Z,1015.53
2018-12-16T04:04:41.922Z,1015.51
2018-12-16T04:05:42.143Z,1015.54
2018-12-16T04:06:43.409Z,1015.49
2018-12-16T04:07:42.059Z,1015.47
2018-12-16T04:08:41.888Z,1015.54
2018-12-16T04:09:42.127Z,1015.45
2018-12-16T04:10:41.992Z,1015.40
2018-12-16T04:11:41.912Z,1015.42
2018-12-16T04:12:42.816Z,1015.33
2018-12-16T04:13:41.956Z,1015.34
2018-12-16T04:14:41.983Z,1015.34
2018-12-16T04:15:41.862Z,1015.28
2018-12-16T04:16:41.972Z,1015.28
2018-12-16T04:17:41.846Z,1015.30
2018-12-16T04:18:43.181Z,1015.31
2018-12-16T04:19:41.861Z,1015.27
2018-12-16T04:20:42.027Z,1015.21
2018-12-16T04:21:41.844Z,1015.23
2018-12-16T04:22:44.083Z,1015.21
2018-12-16T04:23:43.012Z,1015.18
2018-12-16T04:24:41.986Z,1015.21
2018-12-16T04:25:41.378Z,1015.15
2018-12-16T04:26:41.004Z,1015.14
2018-12-16T04:27:41.381Z,1015.10
2018-12-16T04:28:40.981Z,1015.08
2018-12-16T04:29:57.280Z,1015.06
2018-12-16T04:30:40.957Z,1015.04
2018-12-16T04:31:41.438Z,1014.99
2018-12-16T04:32:40.997Z,1014.94
2018-12-16T04:33:41.038Z,1014.95
2018-12-16T04:34:42.180Z,1014.89
2018-12-16T04:35:43.671Z,1014.88
2018-12-16T04:36:40.900Z,1014.90
2018-12-16T04:37:40.934Z,1014.85
2018-12-16T04:38:40.885Z,1014.83
2018-12-16T04:39:40.872Z,1014.85
2018-12-16T04:40:40.859Z,1014.89
2018-12-16T04:41:42.841Z,1014.89
2018-12-16T04:42:40.841Z,1014.85
2018-12-16T04:43:44.635Z,1014.84
2018-12-16T04:44:40.822Z,1014.77
2018-12-16T04:45:40.797Z,1014.79
2018-12-16T04:46:40.842Z,1014.77
2018-12-16T04:47:41.431Z,1014.81
2018-12-16T04:48:40.773Z,1014.79
2018-12-16T04:49:40.794Z,1014.78
2018-12-16T04:50:42.490Z,1014.80
2018-12-16T04:51:40.744Z,1014.75
2018-12-16T04:52:40.733Z,1014.75
2018-12-16T04:53:42.907Z,1014.73
2018-12-16T04:54:40.714Z,1014.66
2018-12-16T04:55:40.729Z,1014.68
2018-12-16T04:56:40.750Z,1014.69
2018-12-16T04:57:40.885Z,1014.66
2018-12-16T04:58:40.658Z,1014.67
2018-12-16T04:59:41.008Z,1014.66
2018-12-16T05:00:40.647Z,1014.61
2018-12-16T05:01:40.631Z,1014.64
2018-12-16T05:02:41.019Z,1014.63
2018-12-16T05:03:40.722Z,1014.66
2018-12-16T05:04:43.147Z,1014.65
2018-12-16T05:05:41.911Z,1014.71
2018-12-16T05:06:40.644Z,1014.68
2018-12-16T05:07:40.573Z,1014.64
2018-12-16T05:08:40.564Z,1014.61
2018-12-16T05:09:40.557Z,1014.61
2018-12-16T05:10:40.535Z,1014.66
2018-12-16T05:11:41.953Z,1014.62
2018-12-16T05:12:40.537Z,1014.63
2018-12-16T05:13:40.520Z,1014.57
2018-12-16T05:14:40.490Z,1014.56
2018-12-16T05:15:40.689Z,1014.56
2018-12-16T05:16:40.464Z,1014.58
2018-12-16T05:17:40.461Z,1014.49
2018-12-16T05:18:40.530Z,1014.51
2018-12-16T05:19:40.481Z,1014.46
2018-12-16T05:20:40.568Z,1014.40
2018-12-16T05:21:40.631Z,1014.36
2018-12-16T05:22:40.637Z,1014.34
2018-12-16T05:23:42.086Z,1014.34
2018-12-16T05:24:40.393Z,1014.24
2018-12-16T05:25:43.323Z,1014.23
2018-12-16T05:26:40.357Z,1014.25
2018-12-16T05:27:40.990Z,1014.23
2018-12-16T05:28:40.337Z,1014.20
2018-12-16T05:29:40.330Z,1014.10
2018-12-16T05:30:40.332Z,1014.08
2018-12-16T05:31:40.769Z,1014.09
2018-12-16T05:32:40.316Z,1014.08
2018-12-16T05:33:40.570Z,1014.06
2018-12-16T05:34:40.280Z,1014.02
2018-12-16T05:35:40.341Z,1014.05
2018-12-16T05:36:40.256Z,1014.02
2018-12-16T05:37:40.436Z,1013.98
2018-12-16T05:38:40.241Z,1014.02
2018-12-16T05:39:42.051Z,1014.00
2018-12-16T05:40:40.205Z,1013.99
2018-12-16T05:41:40.201Z,1014.01
2018-12-16T05:42:43.410Z,1013.98
2018-12-16T05:43:40.172Z,1013.92
2018-12-16T05:44:41.971Z,1013.92
2018-12-16T05:45:40.789Z,1013.88
2018-12-16T05:46:43.363Z,1013.91
2018-12-16T05:47:40.586Z,1013.91
2018-12-16T05:48:40.119Z,1013.85
2018-12-16T05:49:40.390Z,1013.84
2018-12-16T05:50:40.114Z,1013.80
2018-12-16T05:51:40.097Z,1013.88
2018-12-16T05:52:40.689Z,1013.84
2018-12-16T05:53:40.093Z,1013.82
2018-12-16T05:54:40.320Z,1013.74
2018-12-16T05:55:40.106Z,1013.84
2018-12-16T05:56:40.372Z,1013.81
2018-12-16T05:57:40.121Z,1013.75
2018-12-16T05:58:40.754Z,1013.76
2018-12-16T05:59:40.257Z,1013.76
2018-12-16T06:00:40.077Z,1013.77
2018-12-16T06:01:40.059Z,1013.79
2018-12-16T06:02:40.441Z,1013.80
2018-12-16T06:03:39.967Z,1013.75
2018-12-16T06:04:39.948Z,1013.80
2018-12-16T06:05:39.964Z,1013.79
2018-12-16T06:06:39.925Z,1013.75
2018-12-16T06:07:42.193Z,1013.76
2018-12-16T06:08:40.268Z,1013.81
2018-12-16T06:09:40.083Z,1013.77
2018-12-16T06:10:39.903Z,1013.71
2018-12-16T06:11:40.060Z,1013.75
2018-12-16T06:12:39.864Z,1013.69
2018-12-16T06:13:39.896Z,1013.66
2018-12-16T06:14:40.131Z,1013.69
2018-12-16T06:15:39.845Z,1013.68
2018-12-16T06:16:39.837Z,1013.69
2018-12-16T06:17:39.836Z,1013.65
2018-12-16T06:18:39.807Z,1013.64
2018-12-16T06:19:39.790Z,1013.64
2018-12-16T06:20:39.953Z,1013.62
2018-12-16T06:21:39.771Z,1013.54
2018-12-16T06:22:40.184Z,1013.58
2018-12-16T06:23:39.753Z,1013.60
2018-12-16T06:24:39.789Z,1013.58
2018-12-16T06:25:39.733Z,1013.56
2018-12-16T06:26:41.096Z,1013.54
2018-12-16T06:27:39.709Z,1013.51
2018-12-16T06:28:43.630Z,1013.51
2018-12-16T06:29:39.686Z,1013.56
2018-12-16T06:30:39.672Z,1013.49
2018-12-16T06:31:39.674Z,1013.50
2018-12-16T06:32:39.659Z,1013.60
2018-12-16T06:33:39.643Z,1013.49
2018-12-16T06:34:40.484Z,1013.53
2018-12-16T06:35:39.626Z,1013.54
2018-12-16T06:36:39.620Z,1013.52
2018-12-16T06:37:39.596Z,1013.52
2018-12-16T06:38:39.613Z,1013.55
2018-12-16T06:39:39.944Z,1013.53
2018-12-16T06:40:39.758Z,1013.50
2018-12-16T06:41:39.625Z,1013.49
2018-12-16T06:42:39.575Z,1013.48
2018-12-16T06:43:39.649Z,1013.43
2018-12-16T06:44:39.512Z,1013.47
2018-12-16T06:45:39.536Z,1013.41
2018-12-16T06:46:39.695Z,1013.41
2018-12-16T06:47:39.496Z,1013.47
2018-12-16T06:48:39.482Z,1013.43
2018-12-16T06:49:41.189Z,1013.40
2018-12-16T06:50:39.457Z,1013.35
2018-12-16T06:51:39.450Z,1013.34
2018-12-16T06:52:40.214Z,1013.25
2018-12-16T06:53:39.442Z,1013.24
2018-12-16T06:54:39.424Z,1013.27
2018-12-16T06:55:43.249Z,1013.25
2018-12-16T06:56:39.588Z,1013.22
2018-12-16T06:57:39.390Z,1013.20
2018-12-16T06:58:41.877Z,1013.19
2018-12-16T06:59:39.360Z,1013.17
2018-12-16T07:00:39.563Z,1013.20
2018-12-16T07:01:39.818Z,1013.18
2018-12-16T07:02:39.354Z,1013.12
2018-12-16T07:03:39.320Z,1013.11
2018-12-16T07:04:39.739Z,1013.10
2018-12-16T07:05:39.305Z,1013.07
2018-12-16T07:06:39.747Z,1013.10
2018-12-16T07:07:39.274Z,1013.09
2018-12-16T07:08:39.274Z,1013.07
2018-12-16T07:09:39.258Z,1013.11
2018-12-16T07:10:40.386Z,1013.07
2018-12-16T07:11:39.268Z,1013.06
2018-12-16T07:12:39.608Z,1013.07
2018-12-16T07:13:39.218Z,1013.09
2018-12-16T07:14:39.196Z,1013.10
2018-12-16T07:15:39.332Z,1013.13
2018-12-16T07:16:40.630Z,1013.15
2018-12-16T07:17:39.310Z,1013.16
2018-12-16T07:18:39.583Z,1013.19
2018-12-16T07:19:39.212Z,1013.22
2018-12-16T07:20:39.162Z,1013.27
2018-12-16T07:21:39.138Z,1013.33
2018-12-16T07:22:39.130Z,1013.37
2018-12-16T07:23:39.115Z,1013.36
2018-12-16T07:24:39.478Z,1013.40
2018-12-16T07:25:39.155Z,1013.45
2018-12-16T07:26:39.067Z,1013.46
2018-12-16T07:27:39.097Z,1013.49
2018-12-16T07:28:39.055Z,1013.50
2018-12-16T07:29:39.088Z,1013.50
2018-12-16T07:30:39.231Z,1013.51
2018-12-16T07:31:39.520Z,1013.45
2018-12-16T07:32:39.116Z,1013.47
2018-12-16T07:33:39.032Z,1013.51
2018-12-16T07:34:38.995Z,1013.37
2018-12-16T07:35:38.971Z,1013.36
2018-12-16T07:36:39.660Z,1013.34
2018-12-16T07:37:39.006Z,1013.35
2018-12-16T07:38:38.961Z,1013.38
2018-12-16T07:39:38.932Z,1013.39
2018-12-16T07:40:38.937Z,1013.38
2018-12-16T07:41:38.908Z,1013.40
2018-12-16T07:42:39.081Z,1013.39
2018-12-16T07:43:51.719Z,1013.38
2018-12-16T07:44:38.901Z,1013.40
2018-12-16T07:45:38.882Z,1013.38
2018-12-16T07:46:38.876Z,1013.35
2018-12-16T07:47:38.850Z,1013.37
2018-12-16T07:48:38.827Z,1013.40
2018-12-16T07:49:39.148Z,1013.41
2018-12-16T07:50:39.695Z,1013.41
2018-12-16T07:51:38.823Z,1013.43
2018-12-16T07:52:39.324Z,1013.46
2018-12-16T07:53:38.796Z,1013.36
2018-12-16T07:54:38.767Z,1013.38
2018-12-16T07:55:39.530Z,1013.34
2018-12-16T07:56:38.791Z,1013.34
2018-12-16T07:57:38.746Z,1013.34
2018-12-16T07:58:42.936Z,1013.35
2018-12-16T07:59:41.559Z,1013.33
2018-12-16T08:00:45.986Z,1013.35
2018-12-16T08:01:39.067Z,1013.23
2018-12-16T08:02:38.817Z,1013.29
2018-12-16T08:03:41.246Z,1013.24
2018-12-16T08:04:41.970Z,1013.27
2018-12-16T08:05:39.237Z,1013.24
2018-12-16T08:06:41.632Z,1013.28
2018-12-16T08:07:39.859Z,1013.15
2018-12-16T08:11:43.842Z,1013.13
2018-12-16T08:12:17.611Z,1013.12
2018-12-16T08:13:17.599Z,1013.14
2018-12-16T08:14:17.581Z,1013.11
2018-12-16T08:15:17.590Z,1013.06
2018-12-16T08:16:17.599Z,1013.10
2018-12-16T08:17:17.558Z,1013.08
2018-12-16T08:18:17.555Z,1013.10
2018-12-16T08:19:17.539Z,1013.09
2018-12-16T08:20:17.532Z,1013.14
2018-12-16T08:21:17.519Z,1013.12
2018-12-16T08:22:17.562Z,1013.10
2018-12-16T08:23:17.521Z,1013.07
2018-12-16T08:24:23.071Z,1013.06
2018-12-16T08:25:18.475Z,1013.04
2018-12-16T08:26:17.472Z,1013.02
2018-12-16T08:27:17.449Z,1013.03
2018-12-16T08:28:17.488Z,1012.99
2018-12-16T08:29:17.433Z,1012.99
2018-12-16T08:30:17.414Z,1012.98
2018-12-16T08:31:17.447Z,1013.00
2018-12-16T08:32:17.401Z,1013.04
2018-12-16T08:33:17.402Z,1013.03
2018-12-16T08:34:17.398Z,1013.02
2018-12-16T08:35:17.371Z,1013.03
2018-12-16T08:36:17.359Z,1013.07
2018-12-16T08:37:17.348Z,1013.00
2018-12-16T08:38:17.335Z,1013.01
2018-12-16T08:39:17.320Z,1013.01
2018-12-16T08:40:17.331Z,1013.10
2018-12-16T08:41:17.287Z,1013.03
2018-12-16T08:42:17.283Z,1013.09
2018-12-16T08:43:17.291Z,1013.08
2018-12-16T08:44:17.276Z,1013.08
2018-12-16T08:45:17.255Z,1013.08
2018-12-16T08:46:17.315Z,1013.09
2018-12-16T08:47:17.247Z,1013.07
2018-12-16T08:48:17.234Z,1013.05
2018-12-16T08:49:17.222Z,1013.14
2018-12-16T08:50:17.225Z,1013.10
2018-12-16T08:51:17.205Z,1013.03
2018-12-16T08:52:17.339Z,1013.01
2018-12-16T08:53:17.163Z,1013.02
2018-12-16T08:54:17.169Z,1013.03
2018-12-16T08:55:17.168Z,1013.09
2018-12-16T08:56:17.149Z,1013.11
2018-12-16T08:57:17.144Z,1013.12
2018-12-16T08:58:17.148Z,1013.11
2018-12-16T08:59:17.168Z,1013.13
2018-12-16T09:00:17.096Z,1013.11
2018-12-16T09:01:17.082Z,1013.09
2018-12-16T09:02:17.072Z,1013.10
2018-12-16T09:03:17.069Z,1013.07
2018-12-16T09:04:17.115Z,1013.08
2018-12-16T09:05:17.036Z,1013.05
2018-12-16T09:06:17.045Z,1012.99
2018-12-16T09:07:17.029Z,1012.99
2018-12-16T09:08:17.018Z,1012.95
2018-12-16T09:09:17.031Z,1012.97
2018-12-16T09:10:17.022Z,1012.97
2018-12-16T09:11:17.007Z,1012.99
2018-12-16T09:12:17.004Z,1012.93
2018-12-16T09:13:16.963Z,1012.91
2018-12-16T09:14:16.974Z,1012.87
2018-12-16T09:15:16.937Z,1012.88
2018-12-16T09:16:16.951Z,1012.85
2018-12-16T09:17:16.912Z,1012.88
2018-12-16T09:18:16.898Z,1012.84
2018-12-16T09:19:17.848Z,1012.81
2018-12-16T09:20:16.883Z,1012.79
2018-12-16T09:21:16.881Z,1012.77
2018-12-16T09:22:16.899Z,1012.78
2018-12-16T09:23:16.856Z,1012.80
2018-12-16T09:24:16.840Z,1012.76
2018-12-16T09:25:16.843Z,1012.77
2018-12-16T09:26:16.826Z,1012.74
2018-12-16T09:27:16.797Z,1012.68
2018-12-16T09:28:16.837Z,1012.69
2018-12-16T09:29:16.780Z,1012.70
2018-12-16T09:30:16.813Z,1012.62
2018-12-16T09:31:16.758Z,1012.59
2018-12-16T09:32:16.761Z,1012.64
2018-12-16T09:33:16.739Z,1012.58
2018-12-16T09:34:16.726Z,1012.56
2018-12-16T09:35:16.714Z,1012.57
2018-12-16T09:36:16.730Z,1012.61
2018-12-16T09:37:16.699Z,1012.64
2018-12-16T09:38:16.688Z,1012.61
2018-12-16T09:39:16.688Z,1012.59
2018-12-16T09:40:16.670Z,1012.62
2018-12-16T09:41:16.654Z,1012.56
2018-12-16T09:42:16.659Z,1012.50
2018-12-16T09:43:16.635Z,1012.45
2018-12-16T09:44:16.622Z,1012.42
2018-12-16T09:45:16.652Z,1012.45
2018-12-16T09:46:16.587Z,1012.43
2018-12-16T09:47:16.584Z,1012.40
2018-12-16T09:48:16.595Z,1012.35
2018-12-16T09:49:16.568Z,1012.35
2018-12-16T09:50:16.562Z,1012.31
2018-12-16T09:51:16.565Z,1012.31
2018-12-16T09:52:16.567Z,1012.28
2018-12-16T09:53:16.526Z,1012.29
2018-12-16T09:54:16.509Z,1012.30
2018-12-16T09:55:16.499Z,1012.27
2018-12-16T09:56:16.499Z,1012.28
2018-12-16T09:57:16.556Z,1012.24
2018-12-16T09:58:16.508Z,1012.22
2018-12-16T09:59:16.453Z,1012.17
2018-12-16T10:00:16.444Z,1012.17
2018-12-16T10:01:16.430Z,1012.11
2018-12-16T10:02:16.437Z,1012.10
2018-12-16T10:03:16.406Z,1012.07
2018-12-16T10:04:16.422Z,1012.08
2018-12-16T10:05:16.392Z,1012.09
2018-12-16T10:06:16.390Z,1012.03
2018-12-16T10:07:16.380Z,1012.02
2018-12-16T10:08:16.379Z,1012.07
2018-12-16T10:09:16.354Z,1012.03
2018-12-16T10:10:16.381Z,1012.07
2018-12-16T10:11:16.329Z,1012.05
2018-12-16T10:12:16.340Z,1012.01
2018-12-16T10:13:16.307Z,1012.05
2018-12-16T10:14:16.301Z,1012.10
2018-12-16T10:15:16.289Z,1012.07
2018-12-16T10:16:16.297Z,1012.04
2018-12-16T10:17:16.264Z,1012.05
2018-12-16T10:18:16.255Z,1012.06
2018-12-16T10:19:16.261Z,1012.07
2018-12-16T10:20:16.224Z,1012.04
2018-12-16T10:21:16.215Z,1012.01
2018-12-16T10:22:16.264Z,1012.00
2018-12-16T10:23:16.228Z,1011.96
2018-12-16T10:24:16.183Z,1011.95
2018-12-16T10:25:16.182Z,1012.03
2018-12-16T10:26:16.158Z,1011.99
2018-12-16T10:27:16.152Z,1011.98
2018-12-16T10:28:16.173Z,1011.99
2018-12-16T10:29:16.136Z,1011.97
2018-12-16T10:30:16.125Z,1011.94
2018-12-16T10:31:16.149Z,1011.98
2018-12-16T10:32:16.092Z,1011.95
2018-12-16T10:33:16.100Z,1011.87
2018-12-16T10:34:16.115Z,1011.96
2018-12-16T10:35:16.078Z,1011.97
2018-12-16T10:36:16.153Z,1011.91
2018-12-16T10:37:16.038Z,1011.91
2018-12-16T10:38:16.033Z,1012.02
2018-12-16T10:39:16.016Z,1011.91
2018-12-16T10:40:16.048Z,1011.86
2018-12-16T10:41:15.997Z,1011.72
2018-12-16T10:42:15.995Z,1011.82
2018-12-16T10:43:15.989Z,1011.83
2018-12-16T10:44:15.973Z,1011.74
2018-12-16T10:45:15.959Z,1011.75
2018-12-16T10:46:16.068Z,1011.72
2018-12-16T10:47:15.937Z,1011.72
2018-12-16T10:48:15.927Z,1011.73
2018-12-16T10:49:15.966Z,1011.72
2018-12-16T10:50:15.912Z,1011.77
2018-12-16T10:51:15.903Z,1011.71
2018-12-16T10:52:15.886Z,1011.80
2018-12-16T10:53:15.873Z,1011.80
2018-12-16T10:54:15.863Z,1011.69
2018-12-16T10:55:15.873Z,1011.69
2018-12-16T10:56:15.836Z,1011.64
2018-12-16T10:57:15.827Z,1011.66
2018-12-16T10:58:15.824Z,1011.76
2018-12-16T10:59:15.828Z,1011.62
2018-12-16T11:00:15.793Z,1011.60
2018-12-16T11:01:15.783Z,1011.55
2018-12-16T11:02:15.776Z,1011.55
2018-12-16T11:03:15.772Z,1011.57
2018-12-16T11:04:15.750Z,1011.56
2018-12-16T11:05:15.883Z,1011.53
2018-12-16T11:06:15.732Z,1011.44
2018-12-16T11:07:15.745Z,1011.40
2018-12-16T11:08:15.712Z,1011.40
2018-12-16T11:09:15.696Z,1011.42
2018-12-16T11:10:15.683Z,1011.45
2018-12-16T11:11:15.723Z,1011.40
2018-12-16T11:12:18.320Z,1011.38
2018-12-16T11:13:15.649Z,1011.31
2018-12-16T11:14:15.649Z,1011.36
2018-12-16T11:15:15.644Z,1011.34
2018-12-16T11:16:15.620Z,1011.41
2018-12-16T11:17:15.648Z,1011.39
2018-12-16T11:18:15.607Z,1011.31
2018-12-16T11:19:15.587Z,1011.35
2018-12-16T11:20:15.583Z,1011.33
2018-12-16T11:21:15.603Z,1011.29
2018-12-16T11:22:15.550Z,1011.36
2018-12-16T11:23:15.620Z,1011.37
2018-12-16T11:24:15.545Z,1011.32
2018-12-16T11:25:15.529Z,1011.31
2018-12-16T11:26:15.561Z,1011.25
2018-12-16T11:27:15.536Z,1011.30
2018-12-16T11:28:15.483Z,1011.29
2018-12-16T11:29:15.477Z,1011.32
2018-12-16T11:30:15.488Z,1011.22
2018-12-16T11:31:15.464Z,1011.17
2018-12-16T11:32:15.453Z,1011.16
2018-12-16T11:33:15.591Z,1011.16
2018-12-16T11:34:15.424Z,1011.09
2018-12-16T11:35:15.417Z,1011.10
2018-12-16T11:36:15.404Z,1011.14
2018-12-16T11:37:15.394Z,1011.13
2018-12-16T11:38:15.384Z,1011.18
2018-12-16T11:39:15.413Z,1011.19
2018-12-16T11:40:15.382Z,1011.12
2018-12-16T11:41:15.408Z,1011.09
2018-12-16T11:42:15.345Z,1011.02
2018-12-16T11:43:15.328Z,1011.12
2018-12-16T11:44:15.323Z,1011.06
2018-12-16T11:45:15.329Z,1011.06
2018-12-16T11:46:15.298Z,1011.02
2018-12-16T11:47:15.291Z,1011.11
2018-12-16T11:48:15.278Z,1011.01
2018-12-16T11:49:15.266Z,1010.92
2018-12-16T11:50:15.313Z,1010.96
2018-12-16T11:51:15.262Z,1010.97
2018-12-16T11:52:15.234Z,1010.97
2018-12-16T11:53:15.228Z,1010.93
2018-12-16T11:54:15.208Z,1010.91
2018-12-16T11:55:15.194Z,1010.89
2018-12-16T11:56:15.189Z,1010.99
2018-12-16T11:57:15.192Z,1010.87
2018-12-16T11:58:15.171Z,1010.88
2018-12-16T11:59:15.174Z,1010.90
2018-12-16T12:00:15.145Z,1010.80
2018-12-16T12:01:15.177Z,1010.80
2018-12-16T12:02:15.131Z,1010.79
2018-12-16T12:03:15.111Z,1010.75
2018-12-16T12:04:15.111Z,1010.72
2018-12-16T12:05:15.093Z,1010.73
2018-12-16T12:06:15.090Z,1010.69
2018-12-16T12:07:15.098Z,1010.70
2018-12-16T12:08:15.057Z,1010.71